Weather observations for the past three days for
Broomfield / Jeffco
Imperial (Metric)
Date Time (mdt) Wind (mph) Vis. (mi.) Weather Sky Cond. Temperature (ºF) Relative Humidity Wind Chill (°F) Heat Index (°F) Pressure Precipitation (in)
Air Dwpt 6 hour altimeter (in) sea level (mb) 1 hr 3 hr 6 hr
Max. Min.
04 15:45 S 3 10.00 A Few Clouds FEW120 91.4 33.8 13% 87 30.04 0.0
04 14:47 E 7 10.00 A Few Clouds FEW120 91.4 33.8 13% 87 30.06 0.0
04 13:45 SE 9 10.00 Fair CLR 91.4 32 12% 87 30.08 0.0
04 12:45 SE 13 10.00 Fair CLR 89.6 32 13% 86 30.09 0.0
04 11:49 SE 14 10.00 Fair CLR 87.8 33.8 15% 84 30.1 0.0
04 10:45 SE 10 10.00 Fair CLR 84.2 33.8 16% 81 30.11 0.0
04 09:45 SE 9 10.00 Fair CLR 80.6 39.2 23% 79 30.1 0.0
04 07:48 SE 6 10.00 Clear SKC 66.2 39.2 37% 30.08 0.0
04 06:45 SW 5 10.00 Fair CLR 62.6 37.4 39% 30.06 0.0
04 06:15 SW 3 10.00 Fair CLR 64.4 39.2 40% 30.06 0.0
04 05:55 Calm 10.00 Fair CLR 62.6 37.4 39% 30.06 0.0
04 05:45 Calm 10.00 Fair CLR 62.6 37.4 39% 30.05 0.0
04 05:35 Calm 10.00 Fair CLR 64.4 35.6 34% 30.05 0.0
04 05:15 W 7 10.00 Fair CLR 62.6 37.4 39% 30.05 0.0
04 04:55 W 3 10.00 Fair CLR 64.4 37.4 37% 30.04 0.0
04 04:35 W 3 10.00 Fair CLR 62.6 41 45% 30.04 0.0
04 04:15 Calm 10.00 Fair CLR 68 37.4 33% 30.04 0.0
04 03:55 Calm 10.00 Fair CLR 68 39.2 35% 30.03 0.0
04 03:15 Calm 10.00 Fair CLR 68 35.6 30% 30.02 0.0
04 02:55 NW 3 10.00 Fair CLR 69.8 33.8 27% 30.02 0.0
04 02:35 NW 6 10.00 Fair CLR 68 35.6 30% 30.02 0.0
04 02:15 NW 9 10.00 Fair CLR 69.8 35.6 29% 30.01 0.0
04 01:55 NW 9 10.00 Fair CLR 71.6 35.6 27% 30.01 0.0
04 01:35 N 5 10.00 Fair CLR 69.8 37.4 31% 30.01 0.0
04 01:15 Calm 10.00 Fair CLR 69.8 37.4 31% 30.02 0.0
04 00:55 NW 3 10.00 Fair CLR 71.6 37.4 29% 30.02 0.0
04 00:35 W 12 10.00 Fair CLR 71.6 37.4 29% 30.02 0.0
04 00:15 Calm 10.00 Fair CLR 73.4 35.6 25% 30.03 0.0
03 23:55 SE 3 10.00 Fair CLR 71.6 37.4 29% 30.04 0.0
03 23:35 SW 7 10.00 Fair CLR 71.6 35.6 27% 30.02 0.0
03 23:15 SW 3 10.00 Fair CLR 73.4 35.6 25% 30.01 0.0
03 22:55 Calm 10.00 Fair CLR 69.8 35.6 29% 30.01 0.0
03 22:35 NW 10 10.00 Fair CLR 75.2 37.4 25% 77 30 0.0
03 22:15 NW 14 10.00 Fair CLR 77 37.4 24% 77 30 0.0
03 21:55 NW 13 10.00 Fair CLR 77 37.4 24% 77 30 0.0
03 21:35 NW 12 10.00 Fair CLR 77 37.4 24% 77 30 0.0
03 21:15 NW 12 10.00 Fair CLR 77 39.2 26% 77 30 0.0
03 20:55 NW 12 10.00 Fair CLR 77 39.2 26% 77 30 0.0
03 20:35 NW 13 10.00 Fair CLR 77 39.2 26% 77 30 0.0
03 20:15 NW 12 10.00 Fair CLR 78.8 37.4 23% 78 29.99 0.0
03 19:45 N 8 10.00 Fair CLR 82.4 33.8 17% 80 29.99 0.0
03 18:47 E 10 10.00 Fair CLR 86 33.8 15% 83 29.99 0.0
03 17:45 NE 10 10.00 Fair CLR 89.6 33.8 14% 86 29.99 0.0
03 16:49 NE 13 G 17 10.00 Fair CLR 91.4 33.8 13% 87 29.99 0.0
03 15:51 E 8 10.00 Fair CLR 91.4 33.8 13% 87 30.01 0.0
03 14:48 E 9 10.00 Fair CLR 89.6 33.8 14% 86 30.03 0.0
03 13:48 NE 10 G 21 10.00 Fair CLR 89.6 33.8 14% 86 30.04 0.0
03 12:56 E 13 G 22 10.00 Fair CLR 87.8 35.6 16% 84 30.06 0.0
03 09:45 Vrbl 5 10.00 Partly Cloudy FEW090 SCT150 78.8 41 26% 78 30.09 0.0
03 08:45 Calm 10.00 Fair CLR 73.4 44.6 36% 30.1 0.0
03 07:45 Calm 10.00 A Few Clouds FEW130 69.8 39.2 33% 30.09 0.0
03 06:45 S 7 10.00 Fair CLR 57.2 44.6 63% 30.07 0.0
03 06:15 W 3 10.00 Fair CLR 60.8 41 48% 30.06 0.0
03 05:55 Calm 10.00 Fair CLR 62.6 41 45% 30.06 0.0
03 05:48 Calm 10.00 Fair CLR 62.6 42.8 49% 30.06 0.0
03 05:35 Calm 10.00 Fair CLR 60.8 42.8 52% 30.05 0.0
03 05:15 S 5 10.00 Fair CLR 60.8 42.8 52% 30.06 0.0
03 04:55 Calm 10.00 Fair CLR 60.8 42.8 52% 30.05 0.0
03 04:35 W 3 10.00 Fair CLR 64.4 41 43% 30.05 0.0
03 04:15 Calm 10.00 Fair CLR 62.6 44.6 52% 30.06 0.0
03 03:55 NW 5 10.00 Fair CLR 62.6 42.8 49% 30.05 0.0
03 03:35 NW 3 10.00 Fair CLR 62.6 44.6 52% 30.06 0.0
03 03:15 W 5 10.00 Fair CLR 60.8 44.6 55% 30.06 0.0
03 02:55 W 5 10.00 Fair CLR 62.6 46.4 56% 30.06 0.0
03 02:35 SW 3 10.00 Fair CLR 62.6 48.2 60% 30.06 0.0
03 02:15 W 6 10.00 Fair CLR 64.4 46.4 52% 30.06 0.0
03 01:55 Calm 10.00 Fair CLR 66.2 46.4 49% 30.06 0.0
03 01:35 Calm 10.00 Partly Cloudy SCT120 64.4 50 60% 30.06 0.0
03 01:15 S 5 10.00 Mostly Cloudy BKN120 68 50 53% 30.06 0.0
03 00:55 W 6 10.00 Partly Cloudy SCT120 64.4 50 60% 30.08 0.0
03 00:35 W 7 10.00 Partly Cloudy SCT120 66.2 50 56% 30.08 0.0
03 00:15 Calm 10.00 Partly Cloudy SCT120 66.2 50 56% 30.07 0.0
02 23:55 SW 7 10.00 Fair CLR 66.2 50 56% 30.08 0.0
02 23:35 W 5 10.00 Fair CLR 64.4 51.8 64% 30.07 0.0
02 23:15 Calm 10.00 Fair CLR 68 50 53% 30.06 0.0
02 22:55 Calm 10.00 Light Drizzle SCT060 SCT070 BKN120 66.2 51.8 60% 30.07 0.0
02 22:35 Calm 10.00 Mostly Cloudy BKN110 66.2 51.8 60% 30.09 0.0
02 22:15 W 9 10.00 Mostly Cloudy BKN120 64.4 51.8 64% 30.09 0.0
02 21:55 Calm 10.00 Fair CLR 68 50 53% 30.08 0.0
02 21:35 E 3 10.00 Fair CLR 69.8 48.2 46% 30.08 0.0
02 21:15 E 3 10.00 Thunderstorm in Vicinity SCT090 SCT120 69.8 48.2 46% 30.09 0.0
02 20:55 N 9 10.00 Thunderstorm Light Rain SCT075 BKN100 BKN120 71.6 46.4 41% 30.08 0.0
02 20:35 NW 10 10.00 Light Rain SCT070 BKN100 BKN120 73.4 46.4 38% 30.08 0.0
02 20:15 N 13 10.00 Partly Cloudy SCT120 73.4 44.6 36% 30.06 0.0
02 19:48 N 14 10.00 Fair CLR 77 44.6 32% 78 30.05 0.0
02 18:45 N 13 10.00 Fair CLR 80.6 41 24% 79 30.04 0.0
02 17:45 W 14 10.00 Partly Cloudy SCT110 87.8 37.4 17% 84 30.03 0.0
02 16:56 W 8 G 17 10.00 Partly Cloudy SCT110 84.2 35.6 18% 81 30.04 0.0
02 16:45 SW 7 10.00 Partly Cloudy SCT110 86 35.6 17% 83 30.03 0.0
02 15:50 E 10 G 18 10.00 Fair CLR 89.6 35.6 15% 86 30.03 0.0
02 14:58 Calm 10.00 Fair CLR 87.8 35.6 16% 84 30.06 0.0
02 13:45 E 15 G 20 10.00 Fair CLR 87.8 35.6 16% 84 30.09 0.0
02 12:56 NE 7 G 18 10.00 Fair CLR 84.2 35.6 18% 81 30.1 0.0
02 11:53 SE 8 10.00 Fair CLR 84.2 37.4 19% 81 30.14 0.0
02 10:53 SE 12 10.00 Fair CLR 80.6 39.2 23% 79 30.15 0.0
02 09:51 SE 10 10.00 Clear SKC 75.2 42.8 31% 77 30.16 0.0
02 08:50 SE 8 10.00 Fair CLR 71.6 42.8 36% 30.15 0.0
02 07:45 S 3 10.00 Fair CLR 66.2 44.6 46% 30.15 0.0
02 06:59 Calm 10.00 Fair CLR 62.6 44.6 52% 30.13 0.0
02 06:15 W 5 10.00 Fair CLR 60.8 42.8 52% 30.13 0.0
02 05:55 S 3 10.00 Fair CLR 64.4 39.2 40% 30.12 0.0
02 05:45 Calm 10.00 Fair CLR 64.4 41 43% 30.11 0.0
02 05:35 Calm 10.00 Fair CLR 66.2 39.2 37% 30.12 0.0
02 05:15 N 5 10.00 Fair CLR 62.6 41 45% 30.12 0.0
02 04:55 NW 7 10.00 Fair CLR 64.4 41 43% 30.11 0.0
02 04:35 Calm 10.00 Fair CLR 68 39.2 35% 30.11 0.0
02 04:15 N 3 10.00 Fair CLR 64.4 41 43% 30.11 0.0
02 03:55 NW 5 10.00 Fair CLR 66.2 41 40% 30.11 0.0
02 03:35 W 3 10.00 Fair CLR 66.2 39.2 37% 30.11 0.0
02 03:15 Calm 10.00 Fair CLR 66.2 39.2 37% 30.11 0.0
02 02:55 W 3 10.00 Fair CLR 66.2 39.2 37% 30.11 0.0
02 02:35 Calm 10.00 Fair CLR 66.2 41 40% 30.11 0.0
02 02:15 W 3 10.00 Fair CLR 68 39.2 35% 30.11 0.0
02 01:55 W 8 10.00 Fair CLR 69.8 39.2 33% 30.11 0.0
02 01:35 NW 9 10.00 Fair CLR 69.8 41 35% 30.11 0.0
02 01:15 NW 12 10.00 Fair CLR 69.8 41 35% 30.11 0.0
02 00:55 NW 13 10.00 Partly Cloudy SCT120 69.8 41 35% 30.11 0.0
02 00:35 NW 13 10.00 Mostly Cloudy BKN110 69.8 41 35% 30.1 0.0
02 00:15 NW 15 10.00 Partly Cloudy SCT110 69.8 39.2 33% 30.11 0.0
01 23:55 NW 14 10.00 Fair CLR 69.8 41 35% 30.11 0.0
01 23:35 NW 14 10.00 Fair CLR 69.8 41 35% 30.11 0.0
01 23:15 NW 13 10.00 Fair CLR 69.8 42.8 38% 30.11 0.0
01 22:55 NW 10 10.00 Fair CLR 71.6 44.6 38% 30.11 0.0
01 22:35 NW 12 10.00 Fair CLR 71.6 44.6 38% 30.12 0.0
01 22:15 NW 9 10.00 Light Rain SCT060 SCT070 BKN095 71.6 44.6 38% 30.13 0.0
01 21:55 NW 10 10.00 Partly Cloudy SCT095 SCT120 73.4 44.6 36% 30.13 0.0
01 21:35 NW 12 10.00 Partly Cloudy SCT100 SCT120 73.4 44.6 36% 30.13 0.0
01 21:15 NE 6 10.00 Overcast OVC100 75.2 42.8 31% 77 30.11 0.0
01 20:55 Calm 10.00 Mostly Cloudy BKN100 77 42.8 30% 78 30.12 0.0
01 20:35 E 6 10.00 Partly Cloudy SCT110 77 42.8 30% 78 30.11 0.0
01 20:15 NE 3 10.00 Mostly Cloudy BKN110 77 42.8 30% 78 30.1 0.0
01 19:45 E 6 10.00 Showers in Vicinity BKN120 78.8 42.8 28% 78 30.1 0.0
01 18:45 NW 17 G 23 10.00 Showers in Vicinity SCT120 82.4 37.4 20% 80 30.09 0.0
01 17:45 E 6 10.00 Partly Cloudy SCT120 84.2 39.2 20% 81 30.09 0.0
01 16:45 SE 5 10.00 Fair CLR 86 39.2 19% 83 30.09 0.0
Date Time (mdt) Wind (mph) Vis. (mi.) Weather Sky Cond. Air Dwpt Max. Min. Relative Humidity Wind Chill (°F) Heat Index (°F) altimeter (in) sea level (mb) 1 hr 3 hr 6 hr
6 hour
Temperature (ºF) Pressure Precipitation (in)